Time;durP1;ratioP1;P1;durP2;ratioP2;P2;SDS_P1;SDS_P2;PMS_P1;PMS_P2;Temp;Humidity;BMP_temperature;BMP_pressure;BME280_temperature;BME280_humidity;BME280_pressure;Samples;Min_cycle;Max_cycle;Signal;HPM_P1;HPM_P2
2022/07/23 00:00:55;;;;;;;8.82;7.03;;;23.00;99.90;;;;;;5050408;28;20041;-78
2022/07/23 00:03:20;;;;;;;9.18;7.30;;;23.00;99.90;;;;;;5052537;28;20075;-79
2022/07/23 00:05:46;;;;;;;8.60;7.28;;;23.00;99.90;;;;;;5052835;28;20095;-79
2022/07/23 00:08:12;;;;;;;12.05;7.97;;;22.90;99.90;;;;;;5052567;28;20025;-79
2022/07/23 00:10:38;;;;;;;11.63;7.07;;;22.80;99.90;;;;;;5045430;28;20057;-79
2022/07/23 00:13:03;;;;;;;9.52;7.47;;;22.80;99.90;;;;;;5029653;28;20045;-79
2022/07/23 00:15:29;;;;;;;9.88;7.22;;;22.70;99.90;;;;;;5051075;28;20013;-79
2022/07/23 00:17:55;;;;;;;9.30;7.90;;;22.70;99.90;;;;;;5052394;28;20462;-79
2022/07/23 00:20:20;;;;;;;8.35;7.55;;;22.60;99.90;;;;;;5051902;28;20025;-79
2022/07/23 00:22:51;;;;;;;8.18;6.97;;;22.60;99.90;;;;;;5038280;28;20028;-79
2022/07/23 00:25:17;;;;;;;8.73;7.47;;;22.60;99.90;;;;;;5050737;28;20361;-79
2022/07/23 00:27:43;;;;;;;8.50;6.68;;;22.60;99.90;;;;;;5052014;28;20028;-79
2022/07/23 00:30:10;;;;;;;10.05;7.60;;;22.60;99.90;;;;;;5051900;28;20489;-79
2022/07/23 00:32:56;;;;;;;11.23;7.22;;;22.60;99.90;;;;;;5051852;28;20171;-79
2022/07/23 00:35:26;;;;;;;9.25;7.57;;;22.60;99.90;;;;;;5052121;28;20013;-79
2022/07/23 00:37:53;;;;;;;8.32;6.88;;;22.60;99.90;;;;;;5032140;28;20029;-78
2022/07/23 00:40:19;;;;;;;8.02;7.22;;;22.70;99.90;;;;;;5040662;28;20466;-79
2022/07/23 00:42:44;;;;;;;9.18;7.15;;;22.70;99.90;;;;;;5052002;28;20147;-79
2022/07/23 00:45:10;;;;;;;12.43;7.55;;;22.70;99.90;;;;;;5051616;28;20067;-79
2022/07/23 00:47:36;;;;;;;7.65;6.88;;;22.70;99.90;;;;;;5052048;28;20478;-80
2022/07/23 00:50:03;;;;;;;9.38;7.32;;;22.70;99.90;;;;;;5050462;28;20059;-79
2022/07/23 00:52:29;;;;;;;8.60;6.97;;;22.70;99.90;;;;;;5051862;28;20021;-79
2022/07/23 00:54:55;;;;;;;8.20;7.40;;;22.70;99.90;;;;;;5051138;28;20095;-79
2022/07/23 00:57:21;;;;;;;10.88;7.53;;;22.70;99.90;;;;;;5051957;28;20514;-79
2022/07/23 00:59:46;;;;;;;9.65;7.47;;;22.60;99.90;;;;;;5050923;28;20029;-79
2022/07/23 01:02:12;;;;;;;7.78;6.68;;;22.70;99.90;;;;;;5051773;28;20487;-79
2022/07/23 01:04:37;;;;;;;12.15;8.20;;;22.70;99.90;;;;;;5021389;28;20584;-78
2022/07/23 01:07:03;;;;;;;9.73;8.43;;;22.70;99.90;;;;;;5036638;28;20033;-78
2022/07/23 01:09:30;;;;;;;13.77;8.82;;;22.70;99.90;;;;;;5040974;28;20100;-78
2022/07/23 01:11:56;;;;;;;11.98;8.95;;;22.70;99.90;;;;;;5048115;28;20170;-78
2022/07/23 01:14:22;;;;;;;14.30;8.02;;;22.90;99.90;;;;;;5043599;28;20025;-78
2022/07/23 01:16:48;;;;;;;29.73;8.05;;;23.00;99.90;;;;;;5051203;28;20085;-71
2022/07/23 01:19:15;;;;;;;15.20;7.70;;;23.00;99.90;;;;;;5050878;28;20047;-76
2022/07/23 01:21:43;;;;;;;15.25;7.80;;;22.70;99.90;;;;;;5049749;28;20017;-77
2022/07/23 01:24:09;;;;;;;18.38;8.70;;;22.00;99.90;;;;;;5027508;28;20025;-79
2022/07/23 01:26:35;;;;;;;23.60;8.88;;;21.30;99.90;;;;;;5048644;28;20047;-79
2022/07/23 01:29:02;;;;;;;21.20;10.23;;;20.50;99.90;;;;;;5051027;28;20366;-79
2022/07/23 01:31:27;;;;;;;15.02;9.85;;;19.80;99.90;;;;;;5032125;28;20029;-78
2022/07/23 01:33:53;;;;;;;15.07;9.35;;;19.30;99.90;;;;;;5050443;28;20045;-78
2022/07/23 01:36:19;;;;;;;14.75;8.95;;;18.90;99.90;;;;;;5051103;28;20024;-79
2022/07/23 01:38:44;;;;;;;14.98;9.38;;;18.60;99.90;;;;;;5050604;28;20466;-78
2022/07/23 01:41:10;;;;;;;15.45;10.43;;;18.40;99.90;;;;;;5051159;28;20021;-78
2022/07/23 01:43:36;;;;;;;15.82;9.98;;;18.30;99.90;;;;;;5048562;28;20029;-77
2022/07/23 01:46:01;;;;;;;15.55;10.52;;;18.20;99.90;;;;;;5043969;28;20027;-77
2022/07/23 01:48:27;;;;;;;15.23;11.23;;;18.00;99.90;;;;;;5050462;28;20048;-77
2022/07/23 01:50:52;;;;;;;15.85;10.77;;;18.00;99.90;;;;;;5051195;28;20104;-77
2022/07/23 01:53:18;;;;;;;15.80;11.15;;;17.90;99.90;;;;;;5050349;28;20025;-78
2022/07/23 01:55:44;;;;;;;14.40;9.68;;;17.90;99.90;;;;;;5050212;28;20025;-77
2022/07/23 01:58:09;;;;;;;16.73;10.10;;;17.80;99.90;;;;;;5044771;28;20818;-78
2022/07/23 02:00:35;;;;;;;13.98;10.07;;;17.80;99.90;;;;;;5032740;28;20461;-78
2022/07/23 02:03:01;;;;;;;14.50;10.32;;;17.80;99.90;;;;;;5050797;28;20543;-77
2022/07/23 02:05:28;;;;;;;14.60;10.35;;;17.80;99.90;;;;;;5032548;28;20025;-78
2022/07/23 02:07:54;;;;;;;14.95;11.20;;;17.70;99.90;;;;;;5050534;28;20031;-78
2022/07/23 02:10:20;;;;;;;13.23;10.43;;;17.80;99.90;;;;;;5049010;28;20132;-79
2022/07/23 02:12:46;;;;;;;13.90;9.75;;;17.70;99.90;;;;;;5046803;28;20080;-78
2022/07/23 02:15:11;;;;;;;13.25;9.45;;;17.70;99.90;;;;;;5039830;28;20076;-79
2022/07/23 02:17:37;;;;;;;14.77;10.68;;;17.70;99.90;;;;;;5050547;28;20025;-79
2022/07/23 02:20:04;;;;;;;15.15;10.90;;;17.80;99.90;;;;;;5050217;28;20027;-78
2022/07/23 02:22:30;;;;;;;15.23;9.65;;;17.80;99.90;;;;;;5050336;28;20074;-79
2022/07/23 02:24:56;;;;;;;14.60;9.25;;;17.80;99.90;;;;;;5049242;28;20025;-79
2022/07/23 02:27:21;;;;;;;11.95;8.60;;;17.80;99.90;;;;;;5050048;28;20747;-78
2022/07/23 02:29:47;;;;;;;10.65;8.02;;;17.70;99.90;;;;;;5049993;28;20086;-78
2022/07/23 02:32:13;;;;;;;11.05;7.90;;;17.70;99.90;;;;;;5032217;28;20029;-79
2022/07/23 02:34:38;;;;;;;11.18;7.28;;;17.70;99.90;;;;;;5032314;28;20373;-79
2022/07/23 02:37:04;;;;;;;10.75;7.18;;;17.70;99.90;;;;;;5050104;28;20025;-78
2022/07/23 02:39:29;;;;;;;11.57;6.57;;;17.70;99.90;;;;;;5049936;28;20042;-79
2022/07/23 02:41:55;;;;;;;10.18;7.43;;;17.80;99.90;;;;;;5048894;28;20810;-78
2022/07/23 02:44:21;;;;;;;12.70;7.35;;;17.80;99.90;;;;;;5032042;28;20029;-79
2022/07/23 02:46:46;;;;;;;9.25;7.82;;;17.80;99.90;;;;;;5050465;28;20029;-78
2022/07/23 02:49:12;;;;;;;14.45;7.63;;;17.90;99.90;;;;;;5049956;28;20032;-79
2022/07/23 02:51:37;;;;;;;8.75;7.35;;;17.90;99.90;;;;;;5031794;28;20497;-78
2022/07/23 02:54:03;;;;;;;10.93;8.05;;;17.90;99.90;;;;;;5049501;28;20029;-79
2022/07/23 02:56:28;;;;;;;10.10;7.80;;;18.00;99.90;;;;;;5035616;28;20017;-78
2022/07/23 02:58:54;;;;;;;11.00;7.95;;;18.00;99.90;;;;;;5049562;28;20029;-79
2022/07/23 03:01:20;;;;;;;11.95;7.80;;;18.00;99.90;;;;;;5047967;28;20029;-79
2022/07/23 03:03:45;;;;;;;9.60;7.32;;;18.00;99.90;;;;;;5049669;28;20033;-78
2022/07/23 03:06:11;;;;;;;9.05;6.40;;;18.10;99.90;;;;;;5032006;28;20358;-78
2022/07/23 03:08:37;;;;;;;11.35;6.75;;;18.10;99.90;;;;;;5049645;28;20043;-78
2022/07/23 03:11:02;;;;;;;8.07;6.82;;;18.00;99.90;;;;;;5049233;28;20471;-78
2022/07/23 03:13:29;;;;;;;7.60;6.43;;;18.00;99.90;;;;;;5039472;28;20049;-78
2022/07/23 03:15:54;;;;;;;10.10;6.50;;;18.00;99.90;;;;;;5039269;28;20108;-78
2022/07/23 03:18:20;;;;;;;14.65;6.00;;;18.00;99.90;;;;;;5049863;28;20115;-78
2022/07/23 03:20:46;;;;;;;8.68;6.70;;;18.00;99.90;;;;;;5049975;28;20029;-78
2022/07/23 03:23:11;;;;;;;6.88;5.65;;;18.00;99.90;;;;;;5049181;28;20040;-79
2022/07/23 03:25:37;;;;;;;7.57;5.30;;;18.10;99.90;;;;;;5049571;28;20029;-79
2022/07/23 03:28:02;;;;;;;8.55;5.75;;;18.10;99.90;;;;;;5049602;28;20056;-79
2022/07/23 03:30:28;;;;;;;6.07;5.07;;;18.00;99.90;;;;;;5049327;28;20033;-79
2022/07/23 03:32:53;;;;;;;6.82;4.68;;;18.00;99.90;;;;;;5037521;28;20485;-79
2022/07/23 03:35:19;;;;;;;7.63;5.78;;;17.90;99.90;;;;;;5049282;28;20025;-79
2022/07/23 03:37:44;;;;;;;7.28;5.22;;;17.90;99.90;;;;;;5051731;28;20437;-79
2022/07/23 03:40:11;;;;;;;8.23;5.85;;;17.90;99.90;;;;;;5053252;28;20036;-79
2022/07/23 03:42:37;;;;;;;6.95;5.72;;;17.90;99.90;;;;;;5051347;28;20033;-79
2022/07/23 03:45:03;;;;;;;7.35;5.90;;;17.90;99.90;;;;;;5053443;28;20055;-79
2022/07/23 03:47:29;;;;;;;6.15;5.53;;;17.90;99.90;;;;;;5053440;28;20033;-79
2022/07/23 03:49:54;;;;;;;9.23;5.75;;;17.90;99.90;;;;;;5053027;28;20035;-79
2022/07/23 03:52:20;;;;;;;9.60;5.47;;;17.90;99.90;;;;;;5053336;28;20033;-79
2022/07/23 03:54:45;;;;;;;9.45;5.93;;;17.90;99.90;;;;;;5052648;28;20033;-79
2022/07/23 03:57:11;;;;;;;7.72;5.78;;;17.80;99.90;;;;;;5035054;28;20462;-79
2022/07/23 03:59:36;;;;;;;8.25;5.35;;;17.80;99.90;;;;;;5052671;28;20039;-79
2022/07/23 04:02:02;;;;;;;8.77;6.32;;;17.80;99.90;;;;;;5048744;28;20021;-79
2022/07/23 04:04:27;;;;;;;7.00;6.05;;;17.80;99.90;;;;;;5053016;28;20045;-79
2022/07/23 04:06:53;;;;;;;7.13;5.38;;;17.80;99.90;;;;;;5052583;28;20099;-79
2022/07/23 04:09:18;;;;;;;7.05;6.18;;;17.80;99.90;;;;;;5052547;28;20029;-79
2022/07/23 04:11:44;;;;;;;6.88;5.88;;;17.80;99.90;;;;;;5047266;28;20827;-79
2022/07/23 04:14:09;;;;;;;7.30;5.97;;;17.80;99.90;;;;;;5035612;28;20052;-79
2022/07/23 04:16:35;;;;;;;8.85;6.07;;;17.80;99.90;;;;;;5047634;28;20025;-79
2022/07/23 04:19:01;;;;;;;7.53;6.43;;;17.80;99.90;;;;;;5052223;28;20086;-79
2022/07/23 04:21:26;;;;;;;6.82;6.05;;;17.80;99.90;;;;;;5052244;28;20025;-79
2022/07/23 04:23:52;;;;;;;7.35;6.53;;;17.80;99.90;;;;;;5051801;28;20373;-79
2022/07/23 04:26:17;;;;;;;8.35;6.15;;;17.80;99.90;;;;;;5052364;28;20588;-80
2022/07/23 04:28:43;;;;;;;6.60;5.93;;;17.80;99.90;;;;;;5052023;28;20033;-80
2022/07/23 04:31:08;;;;;;;8.63;6.35;;;17.90;99.90;;;;;;5034138;28;20039;-80
2022/07/23 04:33:34;;;;;;;6.93;6.22;;;17.90;99.90;;;;;;5052098;28;20119;-80
2022/07/23 04:35:59;;;;;;;9.88;6.47;;;17.90;99.90;;;;;;5051886;28;20025;-79
2022/07/23 04:38:25;;;;;;;9.40;6.18;;;17.90;99.90;;;;;;5051757;28;20025;-80
2022/07/23 04:40:50;;;;;;;8.88;6.68;;;18.00;99.90;;;;;;5038587;28;20030;-79
2022/07/23 04:43:16;;;;;;;6.80;5.93;;;18.00;99.90;;;;;;5038686;28;20417;-79
2022/07/23 04:45:42;;;;;;;9.50;6.45;;;18.00;99.90;;;;;;5051906;28;20025;-80
2022/07/23 04:48:07;;;;;;;7.10;6.40;;;18.10;99.90;;;;;;5050993;28;20108;-79
2022/07/23 04:50:33;;;;;;;8.75;6.15;;;18.10;99.90;;;;;;5049816;28;20103;-79
2022/07/23 04:52:58;;;;;;;8.98;6.05;;;18.20;99.90;;;;;;5045056;28;20033;-79
2022/07/23 04:55:24;;;;;;;7.07;6.38;;;18.20;99.90;;;;;;5051676;28;20036;-79
2022/07/23 04:57:50;;;;;;;7.18;5.97;;;18.20;99.90;;;;;;5051391;28;20021;-79
2022/07/23 05:00:16;;;;;;;7.78;6.20;;;18.20;99.90;;;;;;5051372;28;20104;-80
2022/07/23 05:02:41;;;;;;;8.13;5.65;;;18.20;99.90;;;;;;5051490;28;20497;-79
2022/07/23 05:05:07;;;;;;;7.45;6.10;;;18.30;99.90;;;;;;5050817;28;20091;-79
2022/07/23 05:07:33;;;;;;;8.27;6.00;;;18.30;99.90;;;;;;5033341;28;20033;-73
2022/07/23 05:09:58;;;;;;;8.27;6.68;;;18.20;99.90;;;;;;5050982;28;20035;-73
2022/07/23 05:12:24;;;;;;;7.03;5.85;;;18.30;99.90;;;;;;5038906;28;20056;-72
2022/07/23 05:14:49;;;;;;;9.13;6.20;;;18.30;99.90;;;;;;5035483;28;20383;-73
2022/07/23 05:17:15;;;;;;;6.95;6.13;;;18.30;99.90;;;;;;5050937;28;20017;-73
2022/07/23 05:19:40;;;;;;;8.13;6.25;;;18.30;99.90;;;;;;5032808;28;20068;-73
2022/07/23 05:22:06;;;;;;;9.13;6.53;;;18.30;99.90;;;;;;5032033;28;20033;-73
2022/07/23 05:24:31;;;;;;;11.20;7.70;;;18.20;99.90;;;;;;5049840;28;20127;-73
2022/07/23 05:26:57;;;;;;;8.82;6.13;;;18.20;99.90;;;;;;5050024;28;20033;-73
2022/07/23 05:29:23;;;;;;;10.73;6.38;;;18.20;99.90;;;;;;5045801;28;20067;-73
2022/07/23 05:31:48;;;;;;;9.18;6.30;;;18.20;99.90;;;;;;5047374;28;20060;-73
2022/07/23 05:34:14;;;;;;;11.52;6.68;;;18.20;99.90;;;;;;5048202;28;20025;-73
2022/07/23 05:36:39;;;;;;;8.02;6.40;;;18.20;99.90;;;;;;5050089;28;20102;-73
2022/07/23 05:39:05;;;;;;;8.38;6.35;;;18.30;99.90;;;;;;5049823;28;20029;-73
2022/07/23 05:41:30;;;;;;;12.20;6.20;;;18.30;99.90;;;;;;5048124;28;20024;-73
2022/07/23 05:43:56;;;;;;;8.50;6.65;;;18.30;99.90;;;;;;5049170;28;20047;-73
2022/07/23 05:46:22;;;;;;;7.53;6.50;;;18.30;99.90;;;;;;5049905;28;20033;-73
2022/07/23 05:48:49;;;;;;;10.13;6.55;;;18.30;99.90;;;;;;5049574;28;20036;-73
2022/07/23 05:51:22;;;;;;;7.22;6.35;;;18.30;99.90;;;;;;5049593;28;20021;-74
2022/07/23 05:53:49;;;;;;;10.27;6.43;;;18.40;99.90;;;;;;5048673;28;20040;-73
2022/07/23 05:56:15;;;;;;;9.18;7.20;;;18.40;99.90;;;;;;5049632;28;20040;-73
2022/07/23 05:58:41;;;;;;;10.07;7.03;;;18.40;99.90;;;;;;5049385;28;20024;-73
2022/07/23 06:01:06;;;;;;;10.23;7.25;;;18.40;99.90;;;;;;5049346;28;20345;-73
2022/07/23 06:03:32;;;;;;;10.43;7.63;;;18.40;99.90;;;;;;5048523;28;20036;-73
2022/07/23 06:05:57;;;;;;;8.60;6.88;;;18.40;99.90;;;;;;5049846;28;20028;-73
2022/07/23 06:08:23;;;;;;;9.85;7.60;;;18.40;99.90;;;;;;5028368;28;20778;-73
2022/07/23 06:10:49;;;;;;;10.68;7.30;;;18.50;99.90;;;;;;5040366;28;20428;-74
2022/07/23 06:13:14;;;;;;;9.27;7.40;;;18.50;99.90;;;;;;5047106;28;20041;-74
2022/07/23 06:15:41;;;;;;;9.82;7.95;;;18.50;99.90;;;;;;5048579;28;20049;-72
2022/07/23 06:18:06;;;;;;;8.77;7.88;;;18.60;99.90;;;;;;5048894;28;20024;-72
2022/07/23 06:20:32;;;;;;;8.57;7.40;;;18.50;99.90;;;;;;5049241;28;20025;-72
2022/07/23 06:22:58;;;;;;;12.00;7.50;;;18.60;99.90;;;;;;5048350;28;20184;-73
2022/07/23 06:25:23;;;;;;;10.75;8.20;;;18.50;99.90;;;;;;5049537;28;20176;-72
2022/07/23 06:27:50;;;;;;;11.40;8.20;;;18.60;99.90;;;;;;5049828;28;20029;-72
2022/07/23 06:30:18;;;;;;;9.40;7.95;;;18.60;99.90;;;;;;5046342;28;20024;-72
2022/07/23 06:32:45;;;;;;;8.70;7.78;;;18.70;99.90;;;;;;5037021;28;20094;-72
2022/07/23 06:35:10;;;;;;;10.73;8.40;;;18.80;99.90;;;;;;5049533;28;20108;-71
2022/07/23 06:37:36;;;;;;;11.35;8.10;;;18.90;99.90;;;;;;5049425;28;20031;-71
2022/07/23 06:40:02;;;;;;;9.40;7.63;;;18.90;99.90;;;;;;5034781;28;20033;-71
2022/07/23 06:42:27;;;;;;;8.95;7.15;;;19.00;99.90;;;;;;5033668;28;20033;-71
2022/07/23 06:44:53;;;;;;;8.80;6.85;;;19.00;99.90;;;;;;5035339;28;20095;-71
2022/07/23 06:47:18;;;;;;;12.80;6.80;;;19.10;99.90;;;;;;5037104;28;20092;-71
2022/07/23 06:49:44;;;;;;;22.98;8.10;;;19.20;99.90;;;;;;5033507;28;20028;-71
2022/07/23 06:52:10;;;;;;;15.68;7.70;;;19.20;99.90;;;;;;5028727;28;20033;-71
2022/07/23 06:54:35;;;;;;;10.35;6.90;;;19.20;99.90;;;;;;5033266;28;20445;-71
2022/07/23 06:57:01;;;;;;;10.55;6.60;;;19.20;99.90;;;;;;5030756;28;20135;-71
2022/07/23 06:59:27;;;;;;;10.70;7.13;;;19.30;99.90;;;;;;5033152;28;20108;-71
2022/07/23 07:01:53;;;;;;;11.25;6.43;;;19.30;99.90;;;;;;5038307;28;20044;-70
2022/07/23 07:04:18;;;;;;;8.15;6.72;;;19.30;99.90;;;;;;5017962;28;20059;-70
2022/07/23 07:06:44;;;;;;;7.20;6.50;;;19.40;99.90;;;;;;5037253;28;20029;-76
2022/07/23 07:09:09;;;;;;;8.98;7.07;;;19.40;99.90;;;;;;5037156;28;20093;-77
2022/07/23 07:11:35;;;;;;;8.88;6.65;;;19.40;99.90;;;;;;5034979;28;20061;-77
2022/07/23 07:14:00;;;;;;;9.02;7.00;;;19.40;99.90;;;;;;5042929;28;20127;-72
2022/07/23 07:16:26;;;;;;;8.10;7.30;;;19.40;99.90;;;;;;5041501;28;20045;-70
2022/07/23 07:18:51;;;;;;;8.82;6.65;;;19.40;99.90;;;;;;5035158;28;20033;-70
2022/07/23 07:21:17;;;;;;;7.05;6.35;;;19.50;99.90;;;;;;5034835;28;20033;-71
2022/07/23 07:23:42;;;;;;;11.30;6.95;;;19.40;99.90;;;;;;5037061;28;20040;-71
2022/07/23 07:26:08;;;;;;;7.95;6.63;;;19.50;99.90;;;;;;5034863;28;20162;-70
2022/07/23 07:28:34;;;;;;;8.35;6.72;;;19.50;99.90;;;;;;5034158;28;20041;-70
2022/07/23 07:30:59;;;;;;;7.93;7.13;;;19.50;99.90;;;;;;5030096;28;20038;-70
2022/07/23 07:33:25;;;;;;;8.10;7.30;;;19.50;99.90;;;;;;5035719;28;20120;-70
2022/07/23 07:35:50;;;;;;;9.90;7.75;;;19.60;99.90;;;;;;5036695;28;20038;-69
2022/07/23 07:38:16;;;;;;;8.77;7.65;;;19.60;99.90;;;;;;5034746;28;20040;-69
2022/07/23 07:40:41;;;;;;;9.55;7.50;;;19.60;99.90;;;;;;5033421;28;20037;-69
2022/07/23 07:43:07;;;;;;;12.68;7.90;;;19.60;99.90;;;;;;5034878;28;20041;-69
2022/07/23 07:45:33;;;;;;;8.23;6.88;;;19.50;99.90;;;;;;5033996;28;20051;-70
2022/07/23 07:47:58;;;;;;;8.30;7.40;;;19.60;99.90;;;;;;5035122;28;20036;-70
2022/07/23 07:50:25;;;;;;;9.10;7.32;;;19.60;99.90;;;;;;5015672;28;20035;-69
2022/07/23 07:52:50;;;;;;;9.32;7.55;;;19.50;99.90;;;;;;5037512;28;20037;-69
2022/07/23 07:55:16;;;;;;;8.50;7.60;;;19.50;99.90;;;;;;5049741;28;20814;-70
2022/07/23 07:57:41;;;;;;;9.20;7.82;;;19.50;99.90;;;;;;5049289;28;20549;-70
2022/07/23 08:00:09;;;;;;;9.38;7.63;;;19.60;99.90;;;;;;5049105;28;20029;-69
2022/07/23 08:02:43;;;;;;;8.13;7.32;;;19.50;99.90;;;;;;5044400;28;20802;-69
2022/07/23 08:05:10;;;;;;;9.63;7.57;;;19.60;99.90;;;;;;5048076;28;20025;-72
2022/07/23 08:07:37;;;;;;;11.02;7.85;;;19.60;99.90;;;;;;5040471;28;20037;-70
2022/07/23 08:10:03;;;;;;;10.02;7.93;;;19.60;99.90;;;;;;5049466;28;20043;-71
2022/07/23 08:12:36;;;;;;;9.65;7.70;;;19.70;99.90;;;;;;5022767;28;20041;-69
2022/07/23 08:15:02;;;;;;;8.43;7.50;;;19.70;99.90;;;;;;5031754;28;20033;-73
2022/07/23 08:17:28;;;;;;;11.07;8.13;;;19.80;99.90;;;;;;5031610;28;20025;-73
2022/07/23 08:19:53;;;;;;;9.30;8.30;;;19.90;99.90;;;;;;5047572;28;20025;-68
2022/07/23 08:22:19;;;;;;;9.60;7.53;;;20.00;99.90;;;;;;5039226;28;20028;-68
2022/07/23 08:24:44;;;;;;;9.30;7.10;;;20.10;99.90;;;;;;5043152;28;20029;-68
2022/07/23 08:27:10;;;;;;;8.88;7.43;;;20.20;99.90;;;;;;5045531;28;20031;-72
2022/07/23 08:29:35;;;;;;;11.30;6.95;;;20.30;99.90;;;;;;5050126;28;20021;-71
2022/07/23 08:32:01;;;;;;;7.93;6.82;;;20.30;99.90;;;;;;5045663;28;20068;-73
2022/07/23 08:34:26;;;;;;;8.75;6.95;;;20.40;99.90;;;;;;5036887;28;20040;-69
2022/07/23 08:36:52;;;;;;;9.07;6.93;;;20.50;99.90;;;;;;5039909;28;20682;-69
2022/07/23 08:39:17;;;;;;;9.15;7.22;;;20.50;99.90;;;;;;5044364;28;20029;-73
2022/07/23 08:41:43;;;;;;;9.07;6.85;;;20.70;99.90;;;;;;5039516;28;20013;-80
2022/07/23 08:44:09;;;;;;;8.65;6.88;;;20.90;99.90;;;;;;5048457;28;20049;-82
2022/07/23 08:46:36;;;;;;;10.68;7.30;;;21.10;99.90;;;;;;5042439;28;20029;-82
2022/07/23 08:49:02;;;;;;;11.82;7.80;;;21.30;99.90;;;;;;5038108;28;20025;-84
2022/07/23 08:51:28;;;;;;;9.95;7.60;;;21.50;99.90;;;;;;5041727;28;20029;-85
2022/07/23 08:53:56;;;;;;;9.43;7.00;;;21.70;99.90;;;;;;5042494;28;20492;-85
2022/07/23 08:56:22;;;;;;;7.15;6.38;;;21.80;99.90;;;;;;5024118;28;20115;-88
2022/07/23 08:58:48;;;;;;;8.30;6.72;;;22.00;99.90;;;;;;5041674;28;20111;-79
2022/07/23 09:01:14;;;;;;;8.38;6.15;;;22.10;99.90;;;;;;5046555;28;20021;-83
2022/07/23 09:03:40;;;;;;;6.95;6.32;;;22.10;99.90;;;;;;5022881;28;20025;-77
2022/07/23 09:06:06;;;;;;;12.98;6.88;;;22.10;99.90;;;;;;5052632;28;20024;-80
2022/07/23 09:08:43;;;;;;;7.47;6.78;;;22.10;99.90;;;;;;5034823;28;20028;-80
2022/07/23 09:11:26;;;;;;;8.13;6.88;;;22.10;99.90;;;;;;5046998;28;20060;-69
2022/07/23 09:13:53;;;;;;;15.43;8.15;;;22.00;99.90;;;;;;5028984;28;20032;-76
2022/07/23 09:16:27;;;;;;;13.95;8.20;;;22.10;99.90;;;;;;5048078;28;20076;-82
2022/07/23 09:18:55;;;;;;;12.00;7.63;;;22.20;99.90;;;;;;5049934;28;20425;-70
2022/07/23 09:21:29;;;;;;;10.82;7.35;;;22.30;99.90;;;;;;5043093;28;20036;-73
2022/07/23 09:23:57;;;;;;;8.10;7.30;;;22.60;99.90;;;;;;5037942;28;20488;-73
2022/07/23 09:26:32;;;;;;;7.95;6.60;;;22.70;99.90;;;;;;5038932;28;20108;-73
2022/07/23 09:29:04;;;;;;;9.48;7.22;;;22.80;99.90;;;;;;5039212;28;20087;-73
2022/07/23 09:31:50;;;;;;;10.77;6.85;;;23.10;99.90;;;;;;5038530;28;20025;-73
2022/07/23 09:34:24;;;;;;;9.00;6.43;;;23.40;99.90;;;;;;5039052;28;20090;-73
2022/07/23 09:36:52;;;;;;;6.70;6.00;;;23.70;99.90;;;;;;5020635;28;20457;-73
2022/07/23 09:39:31;;;;;;;6.55;5.50;;;24.10;99.90;;;;;;5039113;28;20037;-77
2022/07/23 09:41:58;;;;;;;7.25;5.80;;;24.60;99.90;;;;;;5042228;28;20009;-72
2022/07/23 09:44:24;;;;;;;6.95;5.65;;;24.90;99.90;;;;;;5042492;28;20330;-72
2022/07/23 09:46:56;;;;;;;7.57;5.35;;;25.30;99.90;;;;;;5041070;28;20521;-71
2022/07/23 09:49:23;;;;;;;7.40;5.10;;;25.60;99.90;;;;;;5041490;28;20025;-72
2022/07/23 09:51:58;;;;;;;6.90;5.72;;;25.60;99.90;;;;;;5025998;28;20032;-79
2022/07/23 09:54:29;;;;;;;6.43;5.05;;;25.80;99.90;;;;;;5039451;28;20029;-72
2022/07/23 09:56:55;;;;;;;6.22;4.85;;;26.20;99.90;;;;;;5040273;28;20053;-72
2022/07/23 09:59:35;;;;;;;6.20;4.40;;;26.40;99.90;;;;;;5042618;28;20025;-72
2022/07/23 10:02:01;;;;;;;5.60;4.47;;;26.70;99.90;;;;;;5038906;28;20675;-70
2022/07/23 10:04:30;;;;;;;5.47;4.60;;;26.80;99.90;;;;;;5044857;28;20040;-70
2022/07/23 10:06:59;;;;;;;6.25;4.50;;;26.80;99.90;;;;;;5040828;28;20021;-71
2022/07/23 10:09:31;;;;;;;6.38;4.82;;;26.80;99.90;;;;;;5040829;28;20029;-73
2022/07/23 10:14:35;;;;;;;6.55;4.10;;;26.60;99.90;;;;;;5045637;28;20064;-71
2022/07/23 10:17:15;;;;;;;6.85;5.32;;;26.40;99.90;;;;;;5041085;28;20463;-70
2022/07/23 10:19:42;;;;;;;5.63;4.63;;;26.30;99.90;;;;;;5035041;28;20486;-74
2022/07/23 10:22:21;;;;;;;5.88;4.97;;;26.50;99.90;;;;;;5045218;28;20029;-73
2022/07/23 10:25:12;;;;;;;6.78;4.80;;;26.90;99.90;;;;;;5026338;28;20230;-74
2022/07/23 10:28:03;;;;;;;6.53;4.85;;;27.30;99.90;;;;;;5033635;28;20082;-75
2022/07/23 10:31:13;;;;;;;7.38;4.32;;;27.60;99.90;;;;;;5033024;28;20032;-74
2022/07/23 10:33:44;;;;;;;10.57;4.80;;;27.90;99.90;;;;;;5046907;28;20080;-74
2022/07/23 10:36:22;;;;;;;6.85;4.93;;;28.00;99.90;;;;;;5045120;28;20072;-75
2022/07/23 10:39:12;;;;;;;5.10;4.50;;;28.10;99.90;;;;;;5043009;28;20104;-74
2022/07/23 10:41:41;;;;;;;7.43;4.65;;;28.10;99.90;;;;;;5050742;28;20025;-73
2022/07/23 10:44:08;;;;;;;5.50;4.05;;;28.00;99.90;;;;;;5050308;28;20040;-74
2022/07/23 10:49:25;;;;;;;5.93;4.32;;;27.70;99.90;;;;;;5054304;28;20033;-74
2022/07/23 10:52:20;;;;;;;7.25;4.55;;;27.70;99.90;;;;;;5042108;28;20474;-74
2022/07/23 10:54:50;;;;;;;5.25;4.75;;;27.70;99.90;;;;;;5054441;28;20353;-74
2022/07/23 10:57:17;;;;;;;7.10;4.47;;;27.70;99.90;;;;;;5047538;28;20595;-71
2022/07/23 11:00:01;;;;;;;6.20;4.47;;;27.50;99.90;;;;;;5044084;28;20477;-70
2022/07/23 11:02:30;;;;;;;6.43;4.70;;;27.60;99.90;;;;;;5045493;28;20021;-70
2022/07/23 11:05:01;;;;;;;5.32;4.38;;;27.60;99.90;;;;;;5047176;28;20508;-70
2022/07/23 11:07:27;;;;;;;7.45;4.43;;;27.50;99.90;;;;;;5045762;28;20025;-70
2022/07/23 11:09:53;;;;;;;5.45;4.90;;;27.40;99.90;;;;;;5046459;28;20040;-71
2022/07/23 11:12:19;;;;;;;5.68;4.40;;;27.30;99.90;;;;;;5037361;28;20045;-71
2022/07/23 11:15:06;;;;;;;6.70;4.60;;;27.40;99.90;;;;;;5044856;28;20040;-71
2022/07/23 11:17:39;;;;;;;5.88;4.90;;;27.30;99.90;;;;;;5038745;28;20031;-71
2022/07/23 11:20:11;;;;;;;6.32;4.63;;;27.10;99.90;;;;;;5040182;28;20025;-71
2022/07/23 11:22:47;;;;;;;6.68;4.90;;;27.00;99.90;;;;;;5047653;28;20202;-71
2022/07/23 11:25:21;;;;;;;5.65;4.90;;;26.90;99.90;;;;;;5054864;28;20361;-70
2022/07/23 11:27:49;;;;;;;9.05;5.57;;;26.80;99.90;;;;;;5052649;28;20025;-71
2022/07/23 11:30:26;;;;;;;6.60;5.03;;;26.60;99.90;;;;;;5050076;28;20033;-72
2022/07/23 11:33:12;;;;;;;6.93;5.65;;;26.30;99.90;;;;;;5047807;28;20643;-72
2022/07/23 11:35:40;;;;;;;9.65;5.55;;;26.10;99.90;;;;;;5036991;28;20056;-71
2022/07/23 11:38:13;;;;;;;8.15;5.95;;;26.00;99.90;;;;;;5039248;28;20107;-71
2022/07/23 11:40:39;;;;;;;6.32;5.30;;;26.00;99.90;;;;;;5039796;28;20112;-71
2022/07/23 11:43:07;;;;;;;6.90;5.30;;;25.80;99.90;;;;;;5048411;28;20108;-71
2022/07/23 11:45:34;;;;;;;7.68;5.03;;;25.80;99.90;;;;;;5053112;28;20052;-71
2022/07/23 11:48:00;;;;;;;8.75;5.47;;;25.70;99.90;;;;;;5051491;28;20017;-72
2022/07/23 11:50:26;;;;;;;6.32;5.57;;;25.70;99.90;;;;;;5042934;28;20470;-71
2022/07/23 11:52:53;;;;;;;7.88;6.22;;;25.80;99.90;;;;;;5053029;28;20040;-71
2022/07/23 11:55:19;;;;;;;10.20;6.03;;;25.80;99.90;;;;;;5052292;28;20017;-72
2022/07/23 11:57:45;;;;;;;8.73;6.00;;;25.80;99.90;;;;;;5051935;28;20788;-76
2022/07/23 12:00:10;;;;;;;6.97;5.72;;;25.70;99.90;;;;;;5038865;28;20040;-72
2022/07/23 12:02:38;;;;;;;7.47;5.60;;;25.70;99.90;;;;;;5036092;28;20025;-71
2022/07/23 12:05:05;;;;;;;7.93;6.00;;;25.60;99.90;;;;;;5045065;28;20025;-71
2022/07/23 12:07:31;;;;;;;7.72;5.43;;;25.50;99.90;;;;;;5050007;28;20055;-71
2022/07/23 12:10:17;;;;;;;8.35;6.10;;;25.50;99.90;;;;;;5049783;28;20025;-72
2022/07/23 12:12:47;;;;;;;7.07;5.30;;;25.50;99.90;;;;;;5038061;28;20072;-72
2022/07/23 12:15:15;;;;;;;8.77;5.85;;;25.50;99.90;;;;;;5046949;28;20084;-71
2022/07/23 12:17:42;;;;;;;8.13;5.63;;;25.50;99.90;;;;;;5049100;28;20056;-72
2022/07/23 12:20:13;;;;;;;8.27;5.43;;;25.50;99.90;;;;;;5031532;28;20499;-72
2022/07/23 12:22:41;;;;;;;9.70;5.55;;;25.50;99.90;;;;;;5048940;28;20032;-72
2022/07/23 12:25:15;;;;;;;12.02;5.88;;;25.60;99.90;;;;;;5049482;28;20033;-72
2022/07/23 12:27:41;;;;;;;;;;;25.60;99.90;;;;;;5049934;28;20537;-72
2022/07/23 12:30:24;;;;;;;6.72;5.75;;;25.50;99.90;;;;;;5049200;28;19962;-71
2022/07/23 12:32:52;;;;;;;9.27;5.88;;;25.50;99.90;;;;;;5049441;28;20101;-72
2022/07/23 12:35:18;;;;;;;9.70;5.95;;;25.50;99.90;;;;;;5049613;28;20036;-71
2022/07/23 12:37:46;;;;;;;8.13;5.55;;;25.60;99.90;;;;;;5049218;28;20025;-72
2022/07/23 12:40:23;;;;;;;7.45;5.82;;;25.60;99.90;;;;;;5049405;28;20810;-72
2022/07/23 12:42:55;;;;;;;7.65;5.97;;;25.50;99.90;;;;;;5049197;28;20036;-72
2022/07/23 12:45:21;;;;;;;10.13;5.85;;;25.40;99.90;;;;;;5049141;28;20017;-72
2022/07/23 12:47:54;;;;;;;7.15;5.65;;;25.30;99.90;;;;;;5048978;28;20033;-71
2022/07/23 12:50:32;;;;;;;6.15;5.30;;;25.20;99.90;;;;;;5049352;28;20024;-72